createdAt,value
2018-08-22T00:01:11.282Z,19.50
2018-08-22T00:03:38.503Z,19.40
2018-08-22T00:06:05.719Z,20.10
2018-08-22T00:08:38.515Z,19.50
2018-08-22T00:11:05.704Z,19.30
2018-08-22T00:13:32.924Z,19.50
2018-08-22T00:16:00.123Z,19.30
2018-08-22T00:18:27.354Z,19.20
2018-08-22T00:20:54.564Z,19.20
2018-08-22T00:23:21.783Z,19.50
2018-08-22T00:25:48.977Z,19.10
2018-08-22T00:28:16.214Z,19.00
2018-08-22T00:30:43.422Z,18.40
2018-08-22T00:33:10.652Z,19.00
2018-08-22T00:35:37.911Z,18.90
2018-08-22T00:38:05.175Z,18.90
2018-08-22T00:40:32.383Z,19.00
2018-08-22T00:43:00.360Z,18.80
2018-08-22T00:45:27.579Z,18.80
2018-08-22T00:47:54.795Z,18.70
2018-08-22T00:50:22.006Z,18.70
2018-08-22T00:52:49.216Z,18.60
2018-08-22T00:55:16.436Z,18.60
2018-08-22T00:57:43.702Z,18.40
2018-08-22T01:00:10.863Z,18.50
2018-08-22T01:02:38.099Z,18.60
2018-08-22T01:05:05.335Z,18.50
2018-08-22T01:07:32.540Z,18.50
2018-08-22T01:09:59.765Z,18.40
2018-08-22T01:12:27.041Z,18.40
2018-08-22T01:14:54.250Z,18.50
2018-08-22T01:17:21.472Z,18.30
2018-08-22T01:19:48.691Z,18.30
2018-08-22T01:22:15.953Z,18.30
2018-08-22T01:24:43.165Z,18.20
2018-08-22T01:27:14.982Z,18.20
2018-08-22T01:29:42.174Z,18.10
2018-08-22T01:32:09.430Z,18.20
2018-08-22T01:34:36.633Z,18.20
2018-08-22T01:37:03.854Z,18.10
2018-08-22T01:39:31.056Z,18.10
2018-08-22T01:41:58.247Z,18.10
2018-08-22T01:44:25.442Z,18.00
2018-08-22T01:46:52.682Z,17.70
2018-08-22T01:49:19.960Z,18.00
2018-08-22T01:51:47.203Z,18.00
2018-08-22T01:54:14.426Z,18.00
2018-08-22T01:56:41.699Z,18.00
2018-08-22T01:59:08.962Z,18.00
2018-08-22T02:01:36.202Z,17.90
2018-08-22T02:04:03.430Z,18.00
2018-08-22T02:06:30.731Z,18.00
2018-08-22T02:08:57.959Z,17.90
2018-08-22T02:11:25.215Z,17.90
2018-08-22T02:13:52.485Z,18.00
2018-08-22T02:16:19.696Z,16.80
2018-08-22T02:18:46.934Z,17.80
2018-08-22T02:21:14.200Z,17.80
2018-08-22T02:23:41.430Z,16.50
2018-08-22T02:26:08.683Z,17.80
2018-08-22T02:28:35.971Z,17.70
2018-08-22T02:31:03.184Z,17.70
2018-08-22T02:33:30.420Z,17.70
2018-08-22T02:35:57.716Z,17.90
2018-08-22T02:38:25.618Z,17.40
2018-08-22T02:40:55.195Z,17.70
2018-08-22T02:43:22.507Z,17.60
2018-08-22T02:45:49.778Z,17.60
2018-08-22T02:48:17.319Z,17.60
2018-08-22T02:50:44.557Z,17.60
2018-08-22T02:53:11.850Z,16.90
2018-08-22T02:55:39.151Z,17.60
2018-08-22T02:58:06.387Z,17.50
2018-08-22T03:00:33.606Z,17.50
2018-08-22T03:03:00.885Z,17.50
2018-08-22T03:05:28.140Z,17.50
2018-08-22T03:07:55.334Z,17.40
2018-08-22T03:10:22.591Z,17.60
2018-08-22T03:12:49.824Z,17.30
2018-08-22T03:15:17.067Z,17.30
2018-08-22T03:17:44.286Z,17.30
2018-08-22T03:20:11.522Z,17.30
2018-08-22T03:22:38.781Z,17.30
2018-08-22T03:25:06.023Z,17.10
2018-08-22T03:27:33.251Z,17.50
2018-08-22T03:30:00.459Z,16.60
2018-08-22T03:32:27.695Z,17.10
2018-08-22T03:34:54.898Z,17.00
2018-08-22T03:37:22.151Z,17.40
2018-08-22T03:39:49.367Z,17.20
2018-08-22T03:42:16.578Z,17.10
2018-08-22T03:44:43.800Z,17.10
2018-08-22T03:47:11.043Z,17.10
2018-08-22T03:49:38.271Z,17.30
2018-08-22T03:52:05.538Z,17.00
2018-08-22T03:54:32.748Z,17.00
2018-08-22T03:56:59.959Z,17.00
2018-08-22T03:59:27.197Z,16.90
2018-08-22T04:01:54.472Z,16.90
2018-08-22T04:04:21.691Z,17.10
2018-08-22T04:06:48.915Z,16.90
2018-08-22T04:09:16.121Z,16.90
2018-08-22T04:11:43.337Z,16.90
2018-08-22T04:14:10.603Z,16.80
2018-08-22T04:16:37.790Z,16.90
2018-08-22T04:19:04.994Z,16.90
2018-08-22T04:21:32.215Z,16.80
2018-08-22T04:23:59.436Z,16.80
2018-08-22T04:26:26.658Z,16.70
2018-08-22T04:28:53.868Z,16.70
2018-08-22T04:31:21.067Z,16.90
2018-08-22T04:33:48.290Z,16.80
2018-08-22T04:36:15.491Z,16.70
2018-08-22T04:38:42.687Z,16.60
2018-08-22T04:41:09.894Z,16.50
2018-08-22T04:43:37.098Z,16.50
2018-08-22T04:46:04.327Z,16.80
2018-08-22T04:48:31.543Z,17.40
2018-08-22T04:50:58.768Z,16.70
2018-08-22T04:53:26.004Z,16.80
2018-08-22T04:55:53.244Z,16.40
2018-08-22T04:58:20.511Z,16.80
2018-08-22T05:00:47.783Z,16.80
2018-08-22T05:03:15.027Z,16.90
2018-08-22T05:05:42.288Z,16.90
2018-08-22T05:08:09.552Z,17.00
2018-08-22T05:10:36.802Z,16.90
2018-08-22T05:13:04.061Z,17.00
2018-08-22T05:15:31.281Z,17.10
2018-08-22T05:17:58.486Z,17.10
2018-08-22T05:20:25.712Z,17.20
2018-08-22T05:22:52.987Z,16.80
2018-08-22T05:25:20.220Z,17.30
2018-08-22T05:27:47.445Z,17.40
2018-08-22T05:30:14.721Z,17.40
2018-08-22T05:32:41.898Z,17.40
2018-08-22T05:35:09.136Z,17.40
2018-08-22T05:37:36.405Z,17.60
2018-08-22T05:40:03.672Z,17.70
2018-08-22T05:42:30.886Z,17.50
2018-08-22T05:44:58.154Z,17.80
2018-08-22T05:47:25.362Z,18.00
2018-08-22T05:52:19.862Z,18.20
2018-08-22T05:54:47.107Z,18.30
2018-08-22T05:57:14.338Z,18.40
2018-08-22T06:02:08.869Z,18.90
2018-08-22T06:04:36.094Z,19.20
2018-08-22T06:07:03.348Z,19.10
2018-08-22T06:09:30.563Z,19.50
2018-08-22T06:11:57.790Z,19.70
2018-08-22T06:14:24.986Z,19.80
2018-08-22T06:19:19.440Z,20.10
2018-08-22T06:21:46.679Z,20.10
2018-08-22T06:24:13.900Z,20.10
2018-08-22T06:26:41.151Z,20.30
2018-08-22T06:29:08.363Z,20.60
2018-08-22T06:31:35.583Z,20.80
2018-08-22T06:34:02.867Z,21.10
2018-08-22T06:36:30.138Z,21.40
2018-08-22T06:38:57.359Z,21.80
2018-08-22T06:41:24.595Z,22.20
2018-08-22T06:43:51.810Z,22.80
2018-08-22T06:48:46.319Z,23.10
2018-08-22T06:53:40.772Z,23.30
2018-08-22T06:56:08.015Z,23.20
2018-08-22T06:58:35.282Z,22.90
2018-08-22T07:01:02.496Z,23.20
2018-08-22T07:03:29.767Z,23.00
2018-08-22T07:05:56.987Z,22.90
2018-08-22T07:08:24.211Z,23.10
2018-08-22T07:10:51.420Z,23.70
2018-08-22T07:13:18.626Z,24.40
2018-08-22T07:15:46.025Z,25.00
2018-08-22T07:20:40.434Z,25.80
2018-08-22T07:23:07.649Z,26.10
2018-08-22T07:28:02.115Z,26.60
2018-08-22T07:30:29.308Z,26.80
2018-08-22T07:32:56.582Z,27.00
2018-08-22T07:35:23.792Z,27.30
2018-08-22T07:37:51.002Z,27.60
2018-08-22T07:40:18.203Z,27.20
2018-08-22T07:42:45.401Z,27.90
2018-08-22T07:45:12.640Z,28.50
2018-08-22T07:47:39.861Z,28.80
2018-08-22T07:50:07.139Z,29.40
2018-08-22T07:52:34.407Z,30.30
2018-08-22T07:55:01.699Z,29.80
2018-08-22T07:57:28.990Z,30.70
2018-08-22T07:59:56.254Z,31.20
2018-08-22T08:02:23.443Z,31.40
2018-08-22T08:04:50.633Z,31.70
2018-08-22T08:07:17.844Z,31.50
2018-08-22T08:09:45.094Z,32.50
2018-08-22T08:12:12.353Z,32.70
2018-08-22T08:14:39.537Z,33.40
2018-08-22T08:22:01.164Z,34.30
2018-08-22T08:24:28.414Z,34.40
2018-08-22T08:26:55.659Z,33.10
2018-08-22T08:29:22.841Z,33.20
2018-08-22T08:31:50.063Z,34.40
2018-08-22T08:34:17.263Z,33.70
2018-08-22T08:36:44.459Z,35.40
2018-08-22T08:39:12.068Z,35.50
2018-08-22T08:41:39.406Z,35.10
2018-08-22T08:44:06.734Z,34.80
2018-08-22T08:49:01.211Z,35.70
2018-08-22T08:51:28.800Z,35.90
2018-08-22T08:53:56.011Z,36.10
2018-08-22T08:56:23.256Z,36.20
2018-08-22T08:58:50.470Z,35.90
2018-08-22T09:03:44.938Z,37.20
2018-08-22T09:06:12.358Z,37.70
2018-08-22T09:08:39.562Z,37.70
2018-08-22T09:11:06.759Z,37.80
2018-08-22T09:13:37.668Z,37.70
2018-08-22T09:16:04.871Z,38.40
2018-08-22T09:18:32.098Z,39.10
2018-08-22T09:20:59.319Z,39.10
2018-08-22T09:23:26.533Z,39.50
2018-08-22T09:25:53.714Z,39.10
2018-08-22T09:28:20.993Z,39.50
2018-08-22T09:30:48.221Z,39.10
2018-08-22T09:33:15.428Z,39.40
2018-08-22T09:35:42.611Z,40.00
2018-08-22T09:38:09.817Z,40.40
2018-08-22T09:40:37.011Z,40.40
2018-08-22T09:43:04.225Z,41.20
2018-08-22T09:45:31.434Z,41.10
2018-08-22T09:47:58.649Z,41.00
2018-08-22T09:50:25.912Z,40.70
2018-08-22T09:52:53.122Z,40.80
2018-08-22T09:55:20.329Z,41.30
2018-08-22T09:57:47.548Z,42.00
2018-08-22T10:00:20.604Z,42.60
2018-08-22T10:02:47.803Z,43.30
2018-08-22T10:05:15.021Z,43.70
2018-08-22T10:07:42.238Z,43.50
2018-08-22T10:10:09.435Z,43.20
2018-08-22T10:12:36.634Z,43.50
2018-08-22T10:15:03.954Z,43.70
2018-08-22T10:17:31.190Z,43.90
2018-08-22T10:19:58.410Z,44.40
2018-08-22T10:22:25.616Z,45.20
2018-08-22T10:24:52.861Z,45.40
2018-08-22T10:27:20.099Z,45.90
2018-08-22T10:37:08.984Z,47.80
2018-08-22T10:39:36.231Z,47.90
2018-08-22T10:42:03.466Z,48.00
2018-08-22T10:44:30.781Z,47.50
2018-08-22T10:46:57.871Z,46.70
2018-08-22T10:49:25.127Z,46.40
2018-08-22T10:51:52.312Z,46.20
2018-08-22T10:54:19.519Z,47.10
2018-08-22T10:59:13.996Z,48.10
2018-08-22T11:01:41.195Z,48.60
2018-08-22T11:04:08.898Z,48.60
2018-08-22T11:06:36.246Z,48.30
2018-08-22T11:09:05.893Z,48.30
2018-08-22T11:11:33.136Z,48.10
2018-08-22T11:14:00.340Z,47.10
2018-08-22T11:16:27.560Z,47.00
2018-08-22T11:21:33.657Z,44.90
2018-08-22T11:24:12.271Z,43.70
2018-08-22T11:26:50.986Z,42.80
2018-08-22T11:29:29.643Z,42.70
2018-08-22T11:32:08.287Z,41.70
2018-08-22T11:34:46.318Z,42.30
2018-08-22T11:37:14.596Z,44.10
2018-08-22T11:39:42.503Z,45.40
2018-08-22T11:42:09.715Z,46.50
2018-08-22T11:44:36.924Z,46.50
2018-08-22T11:47:04.214Z,46.00
2018-08-22T11:49:31.851Z,46.30
2018-08-22T11:54:27.050Z,41.30
2018-08-22T11:56:54.332Z,40.50
2018-08-22T11:59:21.575Z,39.60
2018-08-22T12:01:49.250Z,38.70
2018-08-22T12:04:16.558Z,37.40
2018-08-22T12:09:13.043Z,36.90
2018-08-22T12:11:40.927Z,37.10
2018-08-22T12:14:08.804Z,37.20
2018-08-22T12:16:36.034Z,37.50
2018-08-22T12:19:03.411Z,39.40
2018-08-22T12:21:30.639Z,41.10
2018-08-22T12:23:57.924Z,42.40
2018-08-22T12:26:25.143Z,42.20
2018-08-22T12:28:52.367Z,41.30
2018-08-22T12:31:19.579Z,40.80
2018-08-22T12:33:46.812Z,40.50
2018-08-22T12:36:14.095Z,40.80
2018-08-22T12:38:41.320Z,41.10
2018-08-22T12:41:08.853Z,41.20
2018-08-22T12:43:36.069Z,41.10
2018-08-22T12:46:03.309Z,40.80
2018-08-22T12:48:30.722Z,40.90
2018-08-22T12:50:57.951Z,40.60
2018-08-22T12:53:25.204Z,40.60
2018-08-22T12:55:52.419Z,40.40
2018-08-22T12:58:19.659Z,40.40
2018-08-22T13:00:46.911Z,40.20
2018-08-22T13:03:14.152Z,39.70
2018-08-22T13:05:41.392Z,38.70
2018-08-22T13:08:08.671Z,38.70
2018-08-22T13:10:35.918Z,38.20
2018-08-22T13:13:03.143Z,38.20
2018-08-22T13:15:30.371Z,38.00
2018-08-22T13:17:57.588Z,38.00
2018-08-22T13:20:24.807Z,37.70
2018-08-22T13:22:52.120Z,37.10
2018-08-22T13:25:19.352Z,36.60
2018-08-22T13:30:13.953Z,35.90
2018-08-22T13:32:41.207Z,35.60
2018-08-22T13:35:08.489Z,35.50
2018-08-22T13:37:36.057Z,35.60
2018-08-22T13:40:03.381Z,35.70
2018-08-22T13:42:30.656Z,35.70
2018-08-22T13:44:57.900Z,35.50
2018-08-22T13:47:25.314Z,35.40
2018-08-22T13:49:53.068Z,35.30
2018-08-22T13:52:20.297Z,35.40
2018-08-22T13:54:47.557Z,35.40
2018-08-22T13:57:14.777Z,35.30
2018-08-22T13:59:42.015Z,35.00
2018-08-22T14:02:09.295Z,34.70
2018-08-22T14:04:36.514Z,34.30
2018-08-22T14:07:03.727Z,34.10
2018-08-22T14:09:30.984Z,34.10
2018-08-22T14:11:58.207Z,34.10
2018-08-22T14:14:25.456Z,34.10
2018-08-22T14:16:52.812Z,33.90
2018-08-22T14:19:20.023Z,34.00
2018-08-22T14:21:47.279Z,34.10
2018-08-22T14:24:14.553Z,34.40
2018-08-22T14:26:41.823Z,34.40
2018-08-22T14:29:09.047Z,34.50
2018-08-22T14:31:36.292Z,34.50
2018-08-22T14:34:03.617Z,34.70
2018-08-22T14:36:30.896Z,34.90
2018-08-22T14:38:58.142Z,35.00
2018-08-22T14:41:25.388Z,35.10
2018-08-22T14:43:52.611Z,35.10
2018-08-22T14:46:19.836Z,35.10
2018-08-22T14:48:47.063Z,34.90
2018-08-22T14:51:14.295Z,34.70
2018-08-22T14:53:41.535Z,34.40
2018-08-22T14:56:08.849Z,34.20
2018-08-22T15:01:03.303Z,33.80
2018-08-22T15:03:30.673Z,33.70
2018-08-22T15:05:57.812Z,33.70
2018-08-22T15:08:25.059Z,33.60
2018-08-22T15:10:52.282Z,33.70
2018-08-22T15:13:19.599Z,33.80
2018-08-22T15:15:46.883Z,33.70
2018-08-22T15:18:14.113Z,33.50
2018-08-22T15:20:41.351Z,33.20
2018-08-22T15:23:09.158Z,33.50
2018-08-22T15:25:36.388Z,33.50
2018-08-22T15:28:03.643Z,33.40
2018-08-22T15:30:30.906Z,33.30
2018-08-22T15:32:58.212Z,33.30
2018-08-22T15:35:25.829Z,33.30
2018-08-22T15:37:53.296Z,33.20
2018-08-22T15:40:20.506Z,33.40
2018-08-22T15:42:47.760Z,33.40
2018-08-22T15:45:15.115Z,33.20
2018-08-22T15:47:42.565Z,33.00
2018-08-22T15:50:09.806Z,32.90
2018-08-22T15:52:37.123Z,31.70
2018-08-22T15:55:11.746Z,32.30
2018-08-22T15:57:51.860Z,33.00
2018-08-22T16:00:32.325Z,33.00
2018-08-22T16:03:01.128Z,32.80
2018-08-22T16:05:28.644Z,32.90
2018-08-22T16:07:55.875Z,32.80
2018-08-22T16:10:23.144Z,32.90
2018-08-22T16:12:50.456Z,33.10
2018-08-22T16:15:17.784Z,33.20
2018-08-22T16:17:49.648Z,33.50
2018-08-22T16:20:17.441Z,33.50
2018-08-22T16:22:44.768Z,33.30
2018-08-22T16:25:12.092Z,33.10
2018-08-22T16:27:44.390Z,32.90
2018-08-22T16:30:11.932Z,32.70
2018-08-22T16:32:39.148Z,32.60
2018-08-22T16:35:06.993Z,32.70
2018-08-22T16:40:01.496Z,32.50
2018-08-22T16:42:35.350Z,32.50
2018-08-22T16:45:05.341Z,32.30
2018-08-22T16:47:34.662Z,32.20
2018-08-22T16:50:02.804Z,32.10
2018-08-22T16:52:30.095Z,32.10
2018-08-22T16:55:12.195Z,32.00
2018-08-22T16:57:40.083Z,32.00
2018-08-22T17:00:07.392Z,31.80
2018-08-22T17:02:34.606Z,31.90
2018-08-22T17:05:01.823Z,31.80
2018-08-22T17:07:29.053Z,31.80
2018-08-22T17:09:56.555Z,31.70
2018-08-22T17:12:23.776Z,31.60
2018-08-22T17:17:18.253Z,31.40
2018-08-22T17:19:45.468Z,31.30
2018-08-22T17:22:12.678Z,31.10
2018-08-22T17:24:39.883Z,31.00
2018-08-22T17:27:07.113Z,30.90
2018-08-22T17:29:34.335Z,30.80
2018-08-22T17:32:04.261Z,30.60
2018-08-22T17:34:31.594Z,30.60
2018-08-22T17:37:06.712Z,30.30
2018-08-22T17:39:33.940Z,30.30
2018-08-22T17:42:01.397Z,30.20
2018-08-22T17:44:28.795Z,29.90
2018-08-22T17:46:56.034Z,29.70
2018-08-22T17:49:23.259Z,29.70
2018-08-22T17:51:55.355Z,29.60
2018-08-22T17:54:22.684Z,29.50
2018-08-22T17:59:21.792Z,29.20
2018-08-22T18:01:49.041Z,29.10
2018-08-22T18:04:16.300Z,28.90
2018-08-22T18:06:43.737Z,28.80
2018-08-22T18:09:10.985Z,28.70
2018-08-22T18:11:38.218Z,28.60
2018-08-22T18:14:05.473Z,28.50
2018-08-22T18:18:59.945Z,28.20
2018-08-22T18:21:32.780Z,28.10
2018-08-22T18:24:00.399Z,28.00
2018-08-22T18:26:27.667Z,26.50
2018-08-22T18:28:54.944Z,27.80
2018-08-22T18:31:22.165Z,27.60
2018-08-22T18:33:58.614Z,27.50
2018-08-22T18:36:27.141Z,27.40
2018-08-22T18:39:03.374Z,27.30
2018-08-22T18:41:30.599Z,27.20
2018-08-22T19:01:09.374Z,26.30
2018-08-22T19:08:35.642Z,26.20
2018-08-22T19:11:02.953Z,26.30
2018-08-22T19:13:30.144Z,26.20
2018-08-22T19:16:07.667Z,26.30
2018-08-22T19:18:34.946Z,25.90
2018-08-22T19:21:03.510Z,25.90
2018-08-22T19:23:30.820Z,25.80
2018-08-22T19:25:58.888Z,26.50
2018-08-22T19:28:26.153Z,25.80
2018-08-22T19:30:53.371Z,25.70
2018-08-22T19:33:22.617Z,25.90
2018-08-22T19:35:49.874Z,25.60
2018-08-22T19:38:21.155Z,25.20
2018-08-22T19:40:48.393Z,25.80
2018-08-22T19:43:15.598Z,25.90
2018-08-22T19:45:42.846Z,25.90
2018-08-22T19:48:10.103Z,25.80
2018-08-22T19:50:37.315Z,25.40
2018-08-22T19:53:04.727Z,25.20
2018-08-22T19:55:32.612Z,25.50
2018-08-22T19:57:59.860Z,25.20
2018-08-22T20:00:27.055Z,25.40
2018-08-22T20:02:54.279Z,25.50
2018-08-22T20:05:21.505Z,25.30
2018-08-22T20:07:48.739Z,25.20
2018-08-22T20:10:19.572Z,25.20
2018-08-22T20:12:49.436Z,25.20
2018-08-22T20:15:16.648Z,25.20
2018-08-22T20:17:45.609Z,25.10
2018-08-22T20:22:42.072Z,25.00
2018-08-22T20:25:09.670Z,25.00
2018-08-22T20:27:37.082Z,24.90
2018-08-22T20:30:12.276Z,24.90
2018-08-22T20:32:54.364Z,25.50
2018-08-22T20:35:27.235Z,24.50
2018-08-22T20:37:54.924Z,24.80
2018-08-22T20:42:49.393Z,24.70
2018-08-22T20:45:21.203Z,24.60
2018-08-22T20:47:53.030Z,24.40
2018-08-22T20:50:20.244Z,24.40
2018-08-22T20:52:48.611Z,24.30
2018-08-22T20:57:43.092Z,24.20
2018-08-22T21:00:10.352Z,24.10
2018-08-22T21:02:37.657Z,24.10
2018-08-22T21:05:04.853Z,24.00
2018-08-22T21:07:36.604Z,23.80
2018-08-22T21:10:03.864Z,23.40
2018-08-22T21:12:31.116Z,24.20
2018-08-22T21:14:58.347Z,23.20
2018-08-22T21:19:52.854Z,23.60
2018-08-22T21:22:27.450Z,23.60
2018-08-22T21:24:57.121Z,23.60
2018-08-22T21:27:24.355Z,23.40
2018-08-22T21:32:18.895Z,23.40
2018-08-22T21:34:46.162Z,23.50
2018-08-22T21:37:24.143Z,23.30
2018-08-22T21:39:51.439Z,23.00
2018-08-22T21:42:26.060Z,23.00
2018-08-22T21:44:53.304Z,23.00
2018-08-22T21:47:20.603Z,23.10
2018-08-22T21:49:47.850Z,23.00
2018-08-22T21:52:15.136Z,22.90
2018-08-22T21:54:42.515Z,23.00
2018-08-22T21:57:09.755Z,22.40
2018-08-22T21:59:37.015Z,23.00
2018-08-22T22:02:07.306Z,22.40
2018-08-22T22:04:37.443Z,22.90
2018-08-22T22:07:05.724Z,22.90
2018-08-22T22:09:33.611Z,22.80
2018-08-22T22:12:01.478Z,22.80
2018-08-22T22:19:29.843Z,22.60
2018-08-22T22:26:51.530Z,22.50
2018-08-22T22:29:18.845Z,22.80
2018-08-22T22:31:48.151Z,22.40
2018-08-22T22:34:15.387Z,22.30
2018-08-22T22:36:42.610Z,22.30
2018-08-22T22:39:25.468Z,22.30
2018-08-22T22:41:52.725Z,22.20
2018-08-22T22:44:20.109Z,22.20
2018-08-22T22:46:47.349Z,22.10
2018-08-22T22:49:15.053Z,22.00
2018-08-22T22:51:42.269Z,22.00
2018-08-22T22:54:09.491Z,22.00
2018-08-22T22:56:36.690Z,21.90
2018-08-22T22:59:03.987Z,22.00
2018-08-22T23:01:31.231Z,22.20
2018-08-22T23:03:58.448Z,21.80
2018-08-22T23:06:25.672Z,21.60
2018-08-22T23:08:52.898Z,21.60
2018-08-22T23:11:20.103Z,21.70
2018-08-22T23:13:55.800Z,21.10
2018-08-22T23:16:27.611Z,21.60
2018-08-22T23:18:54.843Z,21.50
2018-08-22T23:21:22.068Z,21.70
2018-08-22T23:23:49.296Z,21.50
2018-08-22T23:26:19.378Z,21.50
2018-08-22T23:28:46.658Z,21.40
2018-08-22T23:31:15.157Z,21.40
2018-08-22T23:33:42.391Z,21.40
2018-08-22T23:36:09.605Z,21.70
2018-08-22T23:38:37.770Z,21.00
2018-08-22T23:41:05.050Z,21.20
2018-08-22T23:43:37.582Z,21.50
2018-08-22T23:46:06.202Z,21.70
2018-08-22T23:48:34.230Z,21.20
2018-08-22T23:51:02.945Z,21.50
2018-08-22T23:53:36.746Z,21.20
2018-08-22T23:56:11.840Z,21.20
2018-08-22T23:58:41.060Z,21.40
